Time;durP1;ratioP1;P1;durP2;ratioP2;P2;SDS_P1;SDS_P2;PMS_P1;PMS_P2;Temp;Humidity;BMP_temperature;BMP_pressure;BME280_temperature;BME280_humidity;BME280_pressure;Samples;Min_cycle;Max_cycle;Signal;HPM_P1;HPM_P2
2022/06/24 00:02:19;;;;;;;2.42;1.25;;;;;;;;;;4973634;28;20190;-92
2022/06/24 00:11:18;;;;;;;;;;;;;;;;;;;;;
2022/06/24 00:17:06;;;;;;;2.55;1.35;;;;;;;;;;4902744;29;20229;-91
2022/06/24 00:25:23;;;;;;;;;;;;;;;;;;;;;
2022/06/24 00:43:39;;;;;;;1.30;0.93;;;;;;;;;;4875605;29;20222;-91
2022/06/24 01:13:09;;;;;;;3.10;1.20;;;;;;;;;;4948371;28;20208;-91
2022/06/24 01:15:37;;;;;;;2.25;1.10;;;;;;;;;;4954567;28;20227;-92
2022/06/24 01:18:08;;;;;;;3.13;1.55;;;;;;;;;;4954432;28;20213;-91
2022/06/24 01:20:39;;;;;;;1.98;1.50;;;;;;;;;;4953089;28;20694;-91
2022/06/24 01:23:25;;;;;;;;;;;;;;;;;;;;;
2022/06/24 01:25:53;;;;;;;1.50;1.20;;;;;;;;;;4954091;28;20208;-91
2022/06/24 01:28:20;;;;;;;1.98;1.45;;;;;;;;;;4954110;28;20235;-92
2022/06/24 01:30:54;;;;;;;1.73;1.17;;;;;;;;;;4954209;28;20228;-92
2022/06/24 01:36:12;;;;;;;2.08;1.23;;;;;;;;;;4949314;28;20217;-92
2022/06/24 01:38:51;;;;;;;;;;;;;;;;;;;;;
2022/06/24 01:41:29;;;;;;;5.75;1.30;;;;;;;;;;4934978;29;20209;-92
2022/06/24 02:15:45;;;;;;;3.25;1.27;;;;;;;;;;4974626;28;20222;-91
2022/06/24 02:18:12;;;;;;;2.55;1.25;;;;;;;;;;4975227;28;20243;-91
2022/06/24 02:20:39;;;;;;;4.22;1.70;;;;;;;;;;4975471;28;20263;-90
2022/06/24 02:23:07;;;;;;;2.53;1.30;;;;;;;;;;4958037;28;20239;-90
2022/06/24 02:25:34;;;;;;;3.00;1.40;;;;;;;;;;4956494;28;20217;-91
2022/06/24 02:28:03;;;;;;;2.45;1.23;;;;;;;;;;4956757;28;20264;-91
2022/06/24 02:30:31;;;;;;;2.70;1.20;;;;;;;;;;4954381;28;20231;-91
2022/06/24 02:32:58;;;;;;;2.50;1.20;;;;;;;;;;4956842;28;20251;-90
2022/06/24 02:35:28;;;;;;;1.70;1.50;;;;;;;;;;4956535;28;20212;-91
2022/06/24 02:37:55;;;;;;;1.77;1.30;;;;;;;;;;4957342;28;20212;-90
2022/06/24 02:43:12;;;;;;;2.25;1.40;;;;;;;;;;4956824;28;20243;-91
2022/06/24 02:45:40;;;;;;;1.88;1.50;;;;;;;;;;4957147;28;20721;-90
2022/06/24 02:48:08;;;;;;;2.55;1.33;;;;;;;;;;4957086;28;20212;-91
2022/06/24 02:50:39;;;;;;;2.75;1.30;;;;;;;;;;4956462;29;20224;-91
2022/06/24 02:53:06;;;;;;;3.13;1.40;;;;;;;;;;4956924;28;20235;-90
2022/06/24 02:55:34;;;;;;;2.22;1.40;;;;;;;;;;4953168;29;20264;-91
2022/06/24 02:58:01;;;;;;;3.05;1.50;;;;;;;;;;4955601;28;20260;-91
2022/06/24 03:00:31;;;;;;;2.38;1.38;;;;;;;;;;4950922;28;20208;-89
2022/06/24 03:02:58;;;;;;;2.97;1.52;;;;;;;;;;4950436;29;20306;-91
2022/06/24 03:05:26;;;;;;;3.20;1.55;;;;;;;;;;4956417;29;20211;-90
2022/06/24 03:07:54;;;;;;;3.22;1.70;;;;;;;;;;4956770;29;20204;-91
2022/06/24 03:10:23;;;;;;;2.17;1.40;;;;;;;;;;4955636;28;20252;-91
2022/06/24 03:12:50;;;;;;;2.42;1.23;;;;;;;;;;4955753;28;20299;-90
2022/06/24 03:15:18;;;;;;;3.22;1.35;;;;;;;;;;4956369;28;20215;-91
2022/06/24 03:17:49;;;;;;;3.35;1.27;;;;;;;;;;4955991;28;20212;-92
2022/06/24 03:20:17;;;;;;;2.35;1.40;;;;;;;;;;4956124;28;20678;-92
2022/06/24 03:22:58;;;;;;;1.88;1.40;;;;;;;;;;4956521;28;20247;-91
2022/06/24 03:25:25;;;;;;;2.15;1.40;;;;;;;;;;4955916;29;20212;-90
2022/06/24 03:27:53;;;;;;;2.83;1.30;;;;;;;;;;4955869;29;20219;-91
2022/06/24 03:30:22;;;;;;;2.92;1.60;;;;;;;;;;4955858;28;20228;-91
2022/06/24 03:32:51;;;;;;;2.15;1.50;;;;;;;;;;4955439;28;20240;-93
2022/06/24 03:35:19;;;;;;;2.45;1.33;;;;;;;;;;4956184;28;20236;-91
2022/06/24 03:37:46;;;;;;;2.95;1.60;;;;;;;;;;4956039;28;20217;-90
2022/06/24 03:40:14;;;;;;;2.47;1.27;;;;;;;;;;4956405;28;20205;-91
2022/06/24 03:42:41;;;;;;;4.68;1.70;;;;;;;;;;4955913;28;20239;-90
2022/06/24 03:45:09;;;;;;;3.15;1.42;;;;;;;;;;4956520;28;20212;-91
2022/06/24 03:47:36;;;;;;;1.90;1.50;;;;;;;;;;4955323;28;20263;-92
2022/06/24 03:50:06;;;;;;;3.28;1.60;;;;;;;;;;4955514;28;20239;-91
2022/06/24 03:52:36;;;;;;;2.60;1.70;;;;;;;;;;4955302;28;20228;-91
2022/06/24 03:55:04;;;;;;;3.13;1.42;;;;;;;;;;4955457;28;20213;-91
2022/06/24 03:57:31;;;;;;;3.00;1.80;;;;;;;;;;4955251;29;20224;-91
2022/06/24 03:59:59;;;;;;;2.58;1.52;;;;;;;;;;4955251;29;20260;-90
2022/06/24 04:02:26;;;;;;;4.95;1.80;;;;;;;;;;4955245;28;20239;-91
2022/06/24 04:04:55;;;;;;;3.40;1.83;;;;;;;;;;4955937;29;20204;-92
2022/06/24 04:07:24;;;;;;;2.38;1.85;;;;;;;;;;4956719;28;20316;-92
2022/06/24 04:09:51;;;;;;;2.90;1.90;;;;;;;;;;4955460;28;20220;-92
2022/06/24 04:12:20;;;;;;;4.20;1.92;;;;;;;;;;4954525;28;20244;-91
2022/06/24 04:17:36;;;;;;;2.58;1.88;;;;;;;;;;4955318;29;20248;-90
2022/06/24 04:20:03;;;;;;;3.75;1.77;;;;;;;;;;4955821;28;20212;-92
2022/06/24 04:22:32;;;;;;;2.88;1.88;;;;;;;;;;4954916;28;20259;-91
2022/06/24 04:24:59;;;;;;;1.88;1.52;;;;;;;;;;4954838;28;20216;-91
2022/06/24 04:30:47;;;;;;;4.90;1.70;;;;;;;;;;4890625;29;20226;-91
2022/06/24 04:36:43;;;;;;;2.78;1.75;;;;;;;;;;4809767;29;20286;-90
2022/06/24 04:45:17;;;;;;;3.00;1.58;;;;;;;;;;4892669;29;20213;-93
2022/06/24 04:47:50;;;;;;;3.35;1.70;;;;;;;;;;4900221;29;20229;-92
2022/06/24 04:50:18;;;;;;;5.40;1.80;;;;;;;;;;4954857;28;20224;-91
2022/06/24 04:52:49;;;;;;;3.65;1.55;;;;;;;;;;4954630;29;20288;-92
2022/06/24 04:55:21;;;;;;;5.45;1.75;;;;;;;;;;4953901;29;20240;-92
2022/06/24 04:57:55;;;;;;;4.28;1.63;;;;;;;;;;4954721;29;20204;-92
2022/06/24 05:00:59;;;;;;;3.78;1.88;;;;;;;;;;4937260;29;20243;-92
2022/06/24 05:03:34;;;;;;;3.78;2.00;;;;;;;;;;4888169;29;20293;-90
2022/06/24 05:06:10;;;;;;;2.30;1.98;;;;;;;;;;4949196;29;20205;-91
2022/06/24 05:15:08;;;;;;;5.18;2.13;;;;;;;;;;4910499;29;20234;-90
2022/06/24 05:17:38;;;;;;;3.80;2.25;;;;;;;;;;4954239;29;20208;-90
2022/06/24 05:20:11;;;;;;;130.88;50.50;;;;;;;;;;4954207;29;20296;-92
2022/06/24 05:22:41;;;;;;;125.72;49.40;;;;;;;;;;4956474;28;20232;-90
2022/06/24 05:25:11;;;;;;;53.85;25.83;;;;;;;;;;4946652;29;20237;-90
2022/06/24 05:27:48;;;;;;;66.28;24.75;;;;;;;;;;4951961;29;20232;-91
2022/06/24 05:30:16;;;;;;;41.20;19.35;;;;;;;;;;4958992;29;20220;-89
2022/06/24 05:32:43;;;;;;;28.60;14.65;;;;;;;;;;4949915;28;20233;-88
2022/06/24 05:35:14;;;;;;;26.08;13.32;;;;;;;;;;4956370;29;20256;-88
2022/06/24 05:37:41;;;;;;;26.08;12.45;;;;;;;;;;4950125;29;20300;-91
2022/06/24 05:40:09;;;;;;;27.52;11.57;;;;;;;;;;4951800;28;20204;-91
2022/06/24 05:42:36;;;;;;;24.40;10.95;;;;;;;;;;4950007;29;20239;-92
2022/06/24 05:45:04;;;;;;;22.65;10.73;;;;;;;;;;4949864;29;20296;-91
2022/06/24 05:47:35;;;;;;;21.98;11.18;;;;;;;;;;4956852;29;20207;-92
2022/06/24 05:50:02;;;;;;;19.83;8.88;;;;;;;;;;4957320;28;20228;-91
2022/06/24 05:55:16;;;;;;;16.63;8.48;;;;;;;;;;4960104;29;20211;-90
2022/06/24 05:57:43;;;;;;;15.20;7.60;;;;;;;;;;4959898;29;20295;-91
2022/06/24 06:00:11;;;;;;;14.27;6.80;;;;;;;;;;4959656;28;20201;-92
2022/06/24 06:02:38;;;;;;;13.15;6.47;;;;;;;;;;4960064;28;20235;-91
2022/06/24 06:05:06;;;;;;;14.13;6.55;;;;;;;;;;4959914;28;20255;-91
2022/06/24 06:07:35;;;;;;;11.93;5.80;;;;;;;;;;4959847;28;20212;-90
2022/06/24 06:10:02;;;;;;;10.13;5.05;;;;;;;;;;4959809;28;20236;-89
2022/06/24 06:12:31;;;;;;;10.13;5.53;;;;;;;;;;4959571;28;20228;-91
2022/06/24 06:14:58;;;;;;;8.40;4.43;;;;;;;;;;4960306;28;20208;-89
2022/06/24 06:17:26;;;;;;;7.15;3.83;;;;;;;;;;4960027;28;20209;-91
2022/06/24 06:19:53;;;;;;;8.93;4.43;;;;;;;;;;4959834;28;20272;-90
2022/06/24 06:22:23;;;;;;;8.75;4.78;;;;;;;;;;4959619;28;20232;-91
2022/06/24 06:24:53;;;;;;;7.75;4.32;;;;;;;;;;4960116;29;20204;-91
2022/06/24 06:27:22;;;;;;;7.43;3.97;;;;;;;;;;4960247;28;20209;-91
2022/06/24 06:29:50;;;;;;;7.88;3.90;;;;;;;;;;4959492;28;20204;-91
2022/06/24 06:32:17;;;;;;;7.57;3.58;;;;;;;;;;4959668;28;20296;-90
2022/06/24 06:34:47;;;;;;;5.65;3.42;;;;;;;;;;4957596;28;20213;-92
2022/06/24 06:37:15;;;;;;;7.18;3.50;;;;;;;;;;4950203;28;20200;-89
2022/06/24 06:39:42;;;;;;;6.93;3.78;;;;;;;;;;4958186;28;20215;-91
2022/06/24 06:42:11;;;;;;;5.18;3.10;;;;;;;;;;4957470;28;20319;-90
2022/06/24 06:44:39;;;;;;;5.75;3.00;;;;;;;;;;4951653;29;20272;-90
2022/06/24 06:47:09;;;;;;;6.20;2.72;;;;;;;;;;4956274;28;20208;-90
2022/06/24 06:49:36;;;;;;;6.13;2.67;;;;;;;;;;4957072;28;20209;-91
2022/06/24 06:52:04;;;;;;;6.63;2.80;;;;;;;;;;4954779;28;20226;-91
2022/06/24 06:54:31;;;;;;;4.38;3.05;;;;;;;;;;4950391;28;20204;-91
2022/06/24 06:57:02;;;;;;;6.05;2.95;;;;;;;;;;4957090;28;20204;-92
2022/06/24 06:59:33;;;;;;;6.07;2.42;;;;;;;;;;4956168;28;20209;-91
2022/06/24 07:02:01;;;;;;;4.20;2.50;;;;;;;;;;4956277;28;20256;-93
2022/06/24 07:04:28;;;;;;;4.43;2.45;;;;;;;;;;4956460;28;20253;-91
2022/06/24 07:06:58;;;;;;;4.40;2.17;;;;;;;;;;4955756;28;20213;-91
2022/06/24 07:09:26;;;;;;;4.20;2.20;;;;;;;;;;4956228;28;20211;-91
2022/06/24 07:11:53;;;;;;;4.00;2.30;;;;;;;;;;4955557;28;20306;-91
2022/06/24 07:14:22;;;;;;;3.65;2.28;;;;;;;;;;4955977;28;20212;-91
2022/06/24 07:16:51;;;;;;;3.97;2.33;;;;;;;;;;4955910;28;20236;-90
2022/06/24 07:19:20;;;;;;;3.70;2.10;;;;;;;;;;4956313;28;20215;-91
2022/06/24 07:21:48;;;;;;;2.92;2.22;;;;;;;;;;4955802;28;20308;-91
2022/06/24 07:24:15;;;;;;;3.38;2.13;;;;;;;;;;4955838;28;20272;-90
2022/06/24 07:26:45;;;;;;;3.42;2.10;;;;;;;;;;4955592;28;20213;-89
2022/06/24 07:29:14;;;;;;;4.53;2.33;;;;;;;;;;4955922;28;20663;-91
2022/06/24 07:31:47;;;;;;;4.53;2.08;;;;;;;;;;4955531;28;20235;-91
2022/06/24 07:34:16;;;;;;;3.75;2.30;;;;;;;;;;4955556;28;20561;-91
2022/06/24 07:36:43;;;;;;;2.90;2.17;;;;;;;;;;4955767;28;20255;-90
2022/06/24 07:39:11;;;;;;;4.68;2.10;;;;;;;;;;4956052;28;20228;-92
2022/06/24 07:41:47;;;;;;;3.60;1.98;;;;;;;;;;4961328;28;20229;-92
2022/06/24 07:44:15;;;;;;;4.57;2.10;;;;;;;;;;4957134;29;20231;-89
2022/06/24 07:46:42;;;;;;;2.97;2.10;;;;;;;;;;4954476;28;20212;-91
2022/06/24 07:49:10;;;;;;;2.40;1.98;;;;;;;;;;4955724;28;20675;-87
2022/06/24 07:51:38;;;;;;;4.60;1.90;;;;;;;;;;4955345;28;20242;-91
2022/06/24 07:54:07;;;;;;;2.53;2.00;;;;;;;;;;4955939;28;20209;-89
2022/06/24 07:59:19;;;;;;;3.17;1.83;;;;;;;;;;4955529;28;20273;-91
2022/06/24 08:01:47;;;;;;;3.13;1.80;;;;;;;;;;4956218;28;20248;-91
2022/06/24 08:04:15;;;;;;;2.65;1.90;;;;;;;;;;4956243;28;20229;-91
2022/06/24 08:06:46;;;;;;;2.22;1.90;;;;;;;;;;4955997;28;20212;-91
2022/06/24 08:09:13;;;;;;;2.17;1.80;;;;;;;;;;4956290;29;20655;-89
2022/06/24 08:11:45;;;;;;;3.20;2.00;;;;;;;;;;4968842;23;20235;-87
2022/06/24 08:14:13;;;;;;;2.17;1.70;;;;;;;;;;4934169;29;20256;-90
2022/06/24 08:16:43;;;;;;;3.15;1.80;;;;;;;;;;4936225;29;20659;-90
2022/06/24 08:19:22;;;;;;;4.07;1.90;;;;;;;;;;4936252;29;20343;-90
2022/06/24 08:22:01;;;;;;;2.35;1.73;;;;;;;;;;4935508;29;20229;-90
2022/06/24 08:24:28;;;;;;;4.55;2.00;;;;;;;;;;4935967;29;20209;-89
2022/06/24 08:27:19;;;;;;;3.65;2.10;;;;;;;;;;4933155;29;20212;-89
2022/06/24 08:32:49;;;;;;;3.00;1.83;;;;;;;;;;4907049;29;20241;-89
2022/06/24 08:35:37;;;;;;;2.20;1.80;;;;;;;;;;4935227;29;20216;-89
2022/06/24 08:38:13;;;;;;;1.88;1.58;;;;;;;;;;4926930;29;20237;-88
2022/06/24 08:40:54;;;;;;;2.40;1.70;;;;;;;;;;4935559;29;20205;-89
2022/06/24 08:43:45;;;;;;;;;;;;;;;;;;;;;
2022/06/24 08:48:58;;;;;;;1.90;1.70;;;;;;;;;;4922194;29;20272;-89
2022/06/24 08:51:40;;;;;;;2.63;2.00;;;;;;;;;;4935438;29;20229;-89
2022/06/24 08:57:23;;;;;;;3.63;1.90;;;;;;;;;;4920045;29;20205;-90
2022/06/24 08:59:55;;;;;;;3.42;1.95;;;;;;;;;;4935169;29;20318;-89
2022/06/24 09:02:32;;;;;;;3.47;2.13;;;;;;;;;;4935036;29;20233;-89
2022/06/24 09:05:03;;;;;;;2.35;1.92;;;;;;;;;;4935069;29;20208;-89
2022/06/24 09:07:31;;;;;;;4.65;2.40;;;;;;;;;;4934700;29;20216;-89
2022/06/24 09:10:03;;;;;;;2.63;2.28;;;;;;;;;;4934799;29;20233;-88
2022/06/24 09:12:40;;;;;;;2.50;1.98;;;;;;;;;;4935057;29;20316;-88
2022/06/24 09:15:08;;;;;;;3.53;2.22;;;;;;;;;;4935226;29;20212;-89
2022/06/24 09:17:40;;;;;;;4.18;2.20;;;;;;;;;;4940467;29;20318;-89
2022/06/24 09:20:10;;;;;;;2.65;2.17;;;;;;;;;;4934830;29;20643;-89
2022/06/24 09:22:54;;;;;;;3.35;2.40;;;;;;;;;;4934966;29;20249;-89
2022/06/24 09:25:26;;;;;;;3.08;2.10;;;;;;;;;;4935178;29;20296;-89
2022/06/24 09:27:58;;;;;;;2.72;2.05;;;;;;;;;;4934739;29;20209;-89
2022/06/24 09:30:38;;;;;;;2.95;2.08;;;;;;;;;;4937094;29;20685;-89
2022/06/24 09:33:21;;;;;;;4.13;2.30;;;;;;;;;;4930780;29;20220;-89
2022/06/24 09:36:00;;;;;;;3.20;1.95;;;;;;;;;;4933962;29;20216;-88
2022/06/24 09:38:51;;;;;;;2.25;2.05;;;;;;;;;;4935422;29;20232;-89
2022/06/24 09:41:22;;;;;;;2.58;1.77;;;;;;;;;;4875213;29;20765;-88
2022/06/24 09:44:03;;;;;;;2.53;1.90;;;;;;;;;;4934948;29;20229;-88
2022/06/24 09:46:55;;;;;;;3.50;2.00;;;;;;;;;;4934636;29;20266;-88
2022/06/24 09:49:30;;;;;;;2.40;2.03;;;;;;;;;;4934823;29;20215;-88
2022/06/24 09:52:02;;;;;;;2.88;1.85;;;;;;;;;;4934137;29;20232;-88
2022/06/24 09:54:41;;;;;;;2.25;1.85;;;;;;;;;;4934448;29;20209;-88
2022/06/24 09:57:21;;;;;;;2.08;1.88;;;;;;;;;;4934264;29;20205;-88
2022/06/24 10:03:13;;;;;;;3.75;2.30;;;;;;;;;;4934646;29;20235;-89
2022/06/24 10:05:44;;;;;;;2.28;1.92;;;;;;;;;;4921038;29;20216;-89
2022/06/24 10:08:14;;;;;;;3.38;2.20;;;;;;;;;;4939672;29;20219;-88
2022/06/24 10:10:45;;;;;;;3.08;2.13;;;;;;;;;;4937528;29;20664;-89
2022/06/24 10:16:01;;;;;;;2.97;2.30;;;;;;;;;;4936288;29;20205;-89
2022/06/24 10:18:32;;;;;;;1.92;1.77;;;;;;;;;;4942463;29;20205;-89
2022/06/24 10:23:45;;;;;;;2.88;2.40;;;;;;;;;;4936961;29;20257;-88
2022/06/24 10:26:19;;;;;;;5.13;2.28;;;;;;;;;;4938489;29;20210;-89
2022/06/24 10:29:22;;;;;;;2.78;2.38;;;;;;;;;;4938238;29;20295;-89
2022/06/24 10:32:02;;;;;;;4.03;2.20;;;;;;;;;;4937468;29;20285;-89
2022/06/24 10:34:44;;;;;;;3.95;2.08;;;;;;;;;;4938384;29;20237;-89
2022/06/24 10:37:27;;;;;;;3.28;1.77;;;;;;;;;;4930159;29;20217;-89
2022/06/24 10:39:59;;;;;;;4.25;2.20;;;;;;;;;;4929593;29;20208;-90
2022/06/24 10:42:29;;;;;;;3.42;2.33;;;;;;;;;;4937485;29;20221;-90
2022/06/24 10:45:00;;;;;;;2.33;2.10;;;;;;;;;;4937922;29;20215;-88
2022/06/24 10:47:52;;;;;;;2.42;2.00;;;;;;;;;;4937290;29;20208;-88
2022/06/24 10:50:39;;;;;;;3.33;2.10;;;;;;;;;;4934361;29;20209;-88
2022/06/24 10:53:31;;;;;;;3.65;2.15;;;;;;;;;;4938101;29;20229;-89
2022/06/24 10:56:04;;;;;;;3.00;2.00;;;;;;;;;;4884090;29;20219;-89
2022/06/24 11:03:57;;;;;;;2.20;2.00;;;;;;;;;;4967585;23;20245;-88
2022/06/24 11:06:27;;;;;;;2.25;1.80;;;;;;;;;;4975660;28;20232;-89
2022/06/24 11:08:57;;;;;;;3.17;2.00;;;;;;;;;;4976348;28;20218;-89
2022/06/24 11:11:37;;;;;;;2.33;1.90;;;;;;;;;;4971986;28;20251;-89
2022/06/24 11:17:36;;;;;;;3.53;2.00;;;;;;;;;;4957310;28;20227;-89
2022/06/24 11:20:21;;;;;;;2.35;1.95;;;;;;;;;;4867767;29;20255;-89
2022/06/24 12:27:24;;;;;;;2.55;1.80;;;;;;;;;;4953345;29;20216;-90
2022/06/24 12:30:19;;;;;;;10.30;2.53;;;;;;;;;;4943017;28;20284;-90
2022/06/24 13:44:30;;;;;;;4.82;2.20;;;;;;;;;;4935113;29;20284;-92
2022/06/24 13:56:57;;;;;;;6.40;2.60;;;;;;;;;;4788529;30;20210;-92
2022/06/24 14:05:59;;;;;;;;;;;;;;;;;;;;;
2022/06/24 14:08:50;;;;;;;3.90;2.10;;;;;;;;;;4850427;29;20274;-92
2022/06/24 17:14:34;;;;;;;3.28;2.30;;;;;;;;;;4966891;23;20224;-88
2022/06/24 18:22:19;;;;;;;;;;;;;;;;;;;;;
2022/06/24 18:25:06;;;;;;;3.17;1.98;;;;;;;;;;4953358;29;20208;-88
2022/06/24 18:27:44;;;;;;;2.20;1.90;;;;;;;;;;4953581;29;20216;-88
2022/06/24 18:30:16;;;;;;;3.72;2.47;;;;;;;;;;4944430;28;20196;-88
2022/06/24 18:33:01;;;;;;;3.15;2.40;;;;;;;;;;4953191;28;20228;-89
2022/06/24 18:38:13;;;;;;;2.45;2.25;;;;;;;;;;4938634;28;20278;-88
2022/06/24 18:43:45;;;;;;;3.25;2.20;;;;;;;;;;4956994;28;20240;-89
2022/06/24 19:47:06;;;;;;;1.60;1.50;;;;;;;;;;4953775;29;20208;-89
2022/06/24 19:49:46;;;;;;;1.52;1.42;;;;;;;;;;4953227;29;20208;-89
2022/06/24 19:52:37;;;;;;;2.15;1.63;;;;;;;;;;4955985;28;20208;-87
2022/06/24 20:12:00;;;;;;;2.72;2.30;;;;;;;;;;6030437;23;21216;-88
2022/06/24 20:19:09;;;;;;;3.55;2.05;;;;;;;;;;4953390;28;20268;-90
2022/06/24 20:21:40;;;;;;;2.55;1.73;;;;;;;;;;4955039;28;20236;-90
2022/06/24 20:24:13;;;;;;;2.28;1.95;;;;;;;;;;4955182;28;20239;-90
2022/06/24 20:26:42;;;;;;;2.95;1.90;;;;;;;;;;4955088;28;20215;-88
2022/06/24 20:29:20;;;;;;;1.98;1.70;;;;;;;;;;4955098;28;20260;-90
2022/06/24 20:32:00;;;;;;;3.22;1.77;;;;;;;;;;4953873;28;20308;-90
2022/06/24 20:34:30;;;;;;;4.43;1.85;;;;;;;;;;4954198;28;20255;-89
2022/06/24 20:36:57;;;;;;;2.45;1.60;;;;;;;;;;4951522;29;20316;-89
2022/06/24 20:39:25;;;;;;;2.25;1.75;;;;;;;;;;4952896;28;20209;-89
2022/06/24 20:41:53;;;;;;;2.85;1.80;;;;;;;;;;4954940;29;20655;-89
2022/06/24 20:44:21;;;;;;;3.20;1.63;;;;;;;;;;4954648;28;20283;-90
2022/06/24 20:46:50;;;;;;;1.63;1.52;;;;;;;;;;4954846;28;20211;-89
2022/06/24 20:49:18;;;;;;;3.08;1.80;;;;;;;;;;4955106;28;20236;-89
2022/06/24 20:51:47;;;;;;;3.25;1.90;;;;;;;;;;4954972;28;20307;-88
2022/06/24 20:54:23;;;;;;;2.00;1.80;;;;;;;;;;4956883;28;20255;-89
2022/06/24 20:56:56;;;;;;;2.30;1.60;;;;;;;;;;4954417;28;20208;-88
2022/06/24 20:59:24;;;;;;;2.22;1.50;;;;;;;;;;4955180;28;20312;-89
2022/06/24 21:01:56;;;;;;;2.65;1.73;;;;;;;;;;4954743;28;20280;-89
2022/06/24 21:04:57;;;;;;;2.63;1.65;;;;;;;;;;4954810;29;20236;-89
2022/06/24 21:07:27;;;;;;;1.67;1.55;;;;;;;;;;4951809;29;20212;-89
2022/06/24 21:10:04;;;;;;;2.90;1.77;;;;;;;;;;4954590;29;20216;-90
2022/06/24 21:15:18;;;;;;;2.25;1.42;;;;;;;;;;4952538;29;20232;-89
2022/06/24 21:17:50;;;;;;;2.33;1.70;;;;;;;;;;4948487;28;20220;-88
2022/06/24 21:20:21;;;;;;;1.90;1.42;;;;;;;;;;4954205;28;20219;-89
2022/06/24 21:22:55;;;;;;;2.10;1.52;;;;;;;;;;4954054;28;20201;-88
2022/06/24 21:25:25;;;;;;;4.43;1.90;;;;;;;;;;4954095;29;20204;-90
2022/06/24 21:27:58;;;;;;;2.00;1.40;;;;;;;;;;4954061;28;20213;-90
2022/06/24 21:30:27;;;;;;;1.60;1.50;;;;;;;;;;4954404;28;20204;-90
2022/06/24 21:33:01;;;;;;;2.13;1.75;;;;;;;;;;4953812;28;20220;-90
2022/06/24 21:35:32;;;;;;;2.05;1.60;;;;;;;;;;4954110;28;20220;-88
2022/06/24 21:38:18;;;;;;;2.33;1.60;;;;;;;;;;4953596;28;20299;-90
2022/06/24 21:40:51;;;;;;;3.00;1.70;;;;;;;;;;4954002;28;20204;-90
2022/06/24 21:43:29;;;;;;;2.00;1.80;;;;;;;;;;4953739;29;20221;-90
2022/06/24 21:46:12;;;;;;;3.28;1.55;;;;;;;;;;4953758;28;20306;-90
2022/06/24 21:51:52;;;;;;;;;;;;;;;;;;;;;
2022/06/24 21:54:21;;;;;;;2.92;1.63;;;;;;;;;;4953522;28;20231;-90
2022/06/24 21:56:52;;;;;;;2.00;1.65;;;;;;;;;;4953731;29;20212;-91
2022/06/24 21:59:24;;;;;;;2.47;1.73;;;;;;;;;;4953498;28;20220;-90
2022/06/24 22:02:02;;;;;;;2.28;1.60;;;;;;;;;;4953319;28;20208;-90
2022/06/24 22:04:39;;;;;;;2.42;1.70;;;;;;;;;;4953846;28;20315;-90
2022/06/24 22:09:54;;;;;;;2.30;1.58;;;;;;;;;;4953034;28;20295;-90
2022/06/24 22:12:32;;;;;;;3.08;1.42;;;;;;;;;;4957003;28;20201;-90
2022/06/24 22:15:00;;;;;;;1.92;1.60;;;;;;;;;;4957253;28;20224;-90
2022/06/24 22:20:16;;;;;;;1.75;1.20;;;;;;;;;;4955863;28;20244;-90
2022/06/24 22:23:05;;;;;;;1.75;1.60;;;;;;;;;;4951600;28;20215;-90
2022/06/24 22:25:49;;;;;;;1.85;1.20;;;;;;;;;;4946903;28;20204;-89
2022/06/24 22:28:24;;;;;;;1.55;1.33;;;;;;;;;;4956970;28;20208;-89
2022/06/24 22:31:04;;;;;;;3.22;1.63;;;;;;;;;;4957008;28;20216;-90
2022/06/24 22:33:31;;;;;;;1.83;1.23;;;;;;;;;;4952434;28;20232;-90
2022/06/24 22:36:03;;;;;;;1.42;1.30;;;;;;;;;;4956057;28;20632;-89
2022/06/24 22:38:36;;;;;;;2.28;1.50;;;;;;;;;;4956740;28;20251;-89
2022/06/24 22:41:04;;;;;;;1.83;1.45;;;;;;;;;;4956744;28;20671;-90
2022/06/24 22:43:51;;;;;;;2.40;1.40;;;;;;;;;;4992645;23;20232;-91
2022/06/24 22:46:21;;;;;;;1.92;1.35;;;;;;;;;;4956947;29;20219;-91
2022/06/24 22:48:57;;;;;;;2.50;1.33;;;;;;;;;;4956288;28;20208;-90
2022/06/24 22:51:50;;;;;;;1.58;1.48;;;;;;;;;;4942610;29;20748;-90
2022/06/24 22:54:26;;;;;;;2.40;1.60;;;;;;;;;;4953397;29;20252;-90
2022/06/24 23:03:02;;;;;;;1.45;1.35;;;;;;;;;;4902864;28;20210;-90
2022/06/24 23:05:33;;;;;;;1.92;1.42;;;;;;;;;;4955538;29;20204;-90
2022/06/24 23:08:20;;;;;;;2.15;1.27;;;;;;;;;;4955057;28;20213;-90
2022/06/24 23:10:58;;;;;;;1.50;1.40;;;;;;;;;;4950185;29;20236;-90
2022/06/24 23:13:38;;;;;;;1.60;1.50;;;;;;;;;;4955430;29;20701;-90
2022/06/24 23:19:40;;;;;;;1.90;1.40;;;;;;;;;;4927178;28;20216;-90
2022/06/24 23:22:32;;;;;;;1.98;1.35;;;;;;;;;;4955902;28;20222;-90
2022/06/24 23:31:02;;;;;;;2.08;1.48;;;;;;;;;;4942703;28;20212;-90
2022/06/24 23:33:37;;;;;;;1.55;1.40;;;;;;;;;;4951587;28;20240;-90
2022/06/24 23:36:09;;;;;;;1.20;1.10;;;;;;;;;;4956112;29;20215;-90
2022/06/24 23:38:50;;;;;;;2.38;1.30;;;;;;;;;;4955939;29;20219;-90
2022/06/24 23:44:27;;;;;;;1.30;1.20;;;;;;;;;;4948638;28;20260;-90
2022/06/24 23:47:31;;;;;;;1.33;1.10;;;;;;;;;;4895789;29;20213;-90
2022/06/24 23:52:47;;;;;;;1.40;1.30;;;;;;;;;;4955362;29;20212;-90
2022/06/24 23:55:14;;;;;;;1.30;1.20;;;;;;;;;;4955317;29;20228;-90
2022/06/24 23:57:50;;;;;;;1.10;1.00;;;;;;;;;;4955439;28;20212;-89
